New Hartford, Minnesota
Current Conditions -  °F | °C
As of 3:53 PM on Wednesday 17 Dec 2014 (Local Time) from KLSE Reporting Station
Overcast Overcast  
Wind Chill: 14°   Ceiling: 2300
Heat Index: 23°   Visibility: 10mi
Dew Point: 12°   Wind: 8mph
Humidity: 63%   Direction: 360°N
Pressure: 30.28"   Gusts: NA
Location:  43.9163°N, 91.4255°W
Report Text: KLSE 172153Z 36007KT 10SM OVC023 M05/M11 A3028 RMK AO2 SLP272 T10501111
Loading
Personal Weather Stations






























Interactive Weather Map New forecast layout! Learn more

10-Day Weather Forecast

Advertisements
Track Severe Weather on mobile